createdAt,value
2023-04-10T00:01:35.680Z,13.27
2023-04-10T00:04:03.610Z,13.93
2023-04-10T00:06:31.804Z,13.13
2023-04-10T00:08:59.360Z,12.43
2023-04-10T00:11:26.973Z,13.73
2023-04-10T00:13:54.634Z,12.73
2023-04-10T00:16:21.903Z,12.52
2023-04-10T00:18:48.961Z,12.18
2023-04-10T00:21:16.009Z,11.60
2023-04-10T00:23:43.800Z,11.38
2023-04-10T00:26:11.171Z,10.80
2023-04-10T00:28:38.620Z,11.07
2023-04-10T00:31:06.428Z,10.63
2023-04-10T00:33:33.468Z,11.05
2023-04-10T00:36:00.472Z,11.75
2023-04-10T00:38:27.670Z,11.10
2023-04-10T00:40:54.723Z,11.95
2023-04-10T00:43:22.452Z,10.95
2023-04-10T00:45:50.473Z,10.90
2023-04-10T00:48:18.349Z,11.90
2023-04-10T00:50:46.957Z,12.43
2023-04-10T00:53:15.882Z,11.82
2023-04-10T00:55:44.439Z,12.75
2023-04-10T00:58:14.700Z,11.63
2023-04-10T01:00:42.326Z,12.18
2023-04-10T01:03:11.356Z,12.55
2023-04-10T01:06:03.674Z,11.52
2023-04-10T01:09:01.161Z,11.27
2023-04-10T01:11:46.943Z,11.25
2023-04-10T01:14:19.020Z,11.05
2023-04-10T01:16:58.729Z,11.88
2023-04-10T01:19:46.684Z,12.07
2023-04-10T01:22:16.349Z,12.02
2023-04-10T01:24:46.636Z,12.48
2023-04-10T01:27:32.947Z,11.32
2023-04-10T01:30:02.657Z,11.60
2023-04-10T01:32:34.188Z,11.30
2023-04-10T01:35:06.722Z,12.60
2023-04-10T01:37:39.166Z,11.77
2023-04-10T01:40:10.491Z,12.73
2023-04-10T01:42:45.380Z,11.85
2023-04-10T01:45:18.518Z,11.63
2023-04-10T01:47:48.722Z,11.75
2023-04-10T01:50:16.884Z,11.32
2023-04-10T01:52:45.420Z,11.18
2023-04-10T01:55:39.807Z,11.30
2023-04-10T01:58:09.691Z,12.13
2023-04-10T02:00:41.870Z,11.43
2023-04-10T02:03:11.392Z,11.57
2023-04-10T02:06:05.359Z,12.00
2023-04-10T02:08:40.348Z,11.63
2023-04-10T02:11:35.850Z,11.32
2023-04-10T02:14:08.382Z,11.00
2023-04-10T02:16:38.301Z,11.02
2023-04-10T02:19:06.921Z,11.80
2023-04-10T02:21:35.150Z,11.02
2023-04-10T02:24:02.274Z,12.35
2023-04-10T02:26:30.460Z,11.63
2023-04-10T02:28:57.685Z,11.43
2023-04-10T02:31:25.129Z,11.25
2023-04-10T02:33:52.484Z,11.38
2023-04-10T02:36:19.653Z,11.30
2023-04-10T02:38:46.616Z,10.90
2023-04-10T02:41:13.898Z,12.05
2023-04-10T02:43:41.834Z,13.10
2023-04-10T02:46:08.916Z,11.52
2023-04-10T02:48:39.498Z,12.35
2023-04-10T02:51:07.621Z,11.98
2023-04-10T02:53:35.229Z,12.20
2023-04-10T02:56:02.604Z,12.73
2023-04-10T02:58:30.689Z,13.20
2023-04-10T03:00:58.550Z,14.65
2023-04-10T03:03:55.887Z,14.32
2023-04-10T03:06:30.376Z,13.07
2023-04-10T03:08:58.185Z,12.65
2023-04-10T03:11:27.293Z,12.93
2023-04-10T03:13:54.916Z,11.75
2023-04-10T03:16:22.786Z,12.40
2023-04-10T03:18:49.991Z,12.82
2023-04-10T03:21:17.343Z,12.23
2023-04-10T03:23:44.259Z,12.98
2023-04-10T03:26:12.581Z,12.55
2023-04-10T03:28:39.973Z,12.32
2023-04-10T03:31:10.760Z,11.57
2023-04-10T03:33:39.261Z,11.70
2023-04-10T03:36:09.014Z,12.30
2023-04-10T03:38:36.283Z,11.60
2023-04-10T03:41:05.639Z,12.20
2023-04-10T03:43:34.398Z,12.30
2023-04-10T03:46:03.640Z,11.57
2023-04-10T03:48:32.445Z,12.50
2023-04-10T03:50:59.566Z,12.02
2023-04-10T03:53:26.573Z,13.20
2023-04-10T03:55:54.672Z,12.45
2023-04-10T03:58:24.485Z,12.38
2023-04-10T04:00:53.191Z,12.40
2023-04-10T04:03:30.675Z,12.50
2023-04-10T04:06:00.885Z,12.57
2023-04-10T04:08:40.526Z,12.45
2023-04-10T04:11:21.252Z,13.18
2023-04-10T04:14:17.588Z,12.68
2023-04-10T04:17:00.636Z,12.98
2023-04-10T04:19:55.731Z,12.25
2023-04-10T04:22:46.410Z,12.05
2023-04-10T04:25:36.700Z,12.05
2023-04-10T04:28:33.741Z,11.83
2023-04-10T04:31:16.336Z,12.10
2023-04-10T04:34:01.946Z,12.20
2023-04-10T04:36:29.277Z,12.35
2023-04-10T04:39:13.511Z,12.30
2023-04-10T04:41:53.442Z,12.13
2023-04-10T04:44:49.408Z,11.77
2023-04-10T04:47:25.754Z,12.82
2023-04-10T04:50:17.509Z,12.05
2023-04-10T04:53:08.083Z,12.45
2023-04-10T04:56:13.669Z,11.15
2023-04-10T04:58:59.293Z,12.02
2023-04-10T05:01:38.091Z,12.23
2023-04-10T05:04:14.374Z,12.03
2023-04-10T05:06:56.854Z,11.98
2023-04-10T05:09:40.055Z,12.77
2023-04-10T05:12:20.385Z,13.25
2023-04-10T05:15:03.778Z,14.23
2023-04-10T05:17:51.259Z,12.60
2023-04-10T05:20:38.648Z,12.85
2023-04-10T05:23:20.517Z,13.45
2023-04-10T05:25:51.912Z,13.43
2023-04-10T05:28:41.733Z,13.43
2023-04-10T05:31:36.433Z,12.73
2023-04-10T05:34:17.150Z,13.40
2023-04-10T05:37:09.598Z,12.82
2023-04-10T05:39:47.591Z,13.00
2023-04-10T05:42:43.750Z,12.77
2023-04-10T05:45:46.196Z,13.30
2023-04-10T05:48:26.365Z,13.77
2023-04-10T05:51:16.337Z,12.73
2023-04-10T05:54:15.398Z,12.35
2023-04-10T05:57:08.620Z,12.60
2023-04-10T05:59:56.535Z,12.95
2023-04-10T06:02:43.856Z,13.02
2023-04-10T06:07:47.256Z,12.68
2023-04-10T06:10:15.250Z,13.82
2023-04-10T06:12:42.233Z,13.27
2023-04-10T06:15:11.592Z,13.63
2023-04-10T06:17:44.511Z,14.10
2023-04-10T06:20:12.392Z,14.88
2023-04-10T06:22:40.870Z,14.48
2023-04-10T06:25:08.311Z,14.18
2023-04-10T06:27:36.019Z,14.40
2023-04-10T06:30:05.224Z,13.95
2023-04-10T06:32:32.864Z,14.65
2023-04-10T06:35:00.746Z,14.38
2023-04-10T06:37:32.854Z,15.20
2023-04-10T06:40:08.331Z,15.75
2023-04-10T06:42:37.460Z,16.73
2023-04-10T06:45:14.355Z,16.65
2023-04-10T06:47:41.438Z,16.50
2023-04-10T06:50:09.385Z,16.55
2023-04-10T06:52:36.984Z,17.50
2023-04-10T06:55:05.710Z,17.48
2023-04-10T06:57:32.675Z,17.92
2023-04-10T07:00:01.870Z,18.42
2023-04-10T07:02:29.056Z,18.60
2023-04-10T07:04:56.993Z,19.17
2023-04-10T07:07:24.455Z,20.48
2023-04-10T07:09:51.415Z,19.65
2023-04-10T07:12:18.420Z,20.10
2023-04-10T07:14:45.404Z,20.40
2023-04-10T07:17:12.378Z,21.40
2023-04-10T07:19:39.403Z,21.10
2023-04-10T07:22:07.386Z,20.23
2023-04-10T07:24:34.430Z,21.25
2023-04-10T07:27:02.468Z,28.55
2023-04-10T07:29:30.303Z,25.20
2023-04-10T07:31:57.400Z,22.15
2023-04-10T07:34:25.842Z,21.52
2023-04-10T07:36:53.245Z,21.08
2023-04-10T07:39:20.698Z,20.42
2023-04-10T07:41:48.933Z,20.48
2023-04-10T07:44:15.914Z,21.23
2023-04-10T07:46:43.822Z,20.67
2023-04-10T07:49:10.847Z,20.15
2023-04-10T07:51:38.794Z,20.80
2023-04-10T07:54:06.219Z,19.67
2023-04-10T07:56:33.130Z,19.58
2023-04-10T07:59:01.135Z,20.00
2023-04-10T08:01:31.311Z,19.55
2023-04-10T08:03:59.356Z,18.92
2023-04-10T08:06:27.886Z,18.85
2023-04-10T08:08:56.016Z,20.20
2023-04-10T08:11:31.470Z,18.48
2023-04-10T08:14:03.713Z,19.05
2023-04-10T08:16:34.425Z,18.50
2023-04-10T08:19:02.367Z,17.77
2023-04-10T08:21:31.884Z,18.83
2023-04-10T08:24:03.860Z,18.13
2023-04-10T08:26:30.974Z,18.30
2023-04-10T08:28:59.897Z,18.77
2023-04-10T08:31:28.734Z,17.52
2023-04-10T08:33:57.171Z,16.98
2023-04-10T08:36:26.725Z,17.30
2023-04-10T08:38:53.662Z,16.75
2023-04-10T08:41:21.544Z,16.48
2023-04-10T08:43:49.918Z,16.38
2023-04-10T08:46:18.149Z,15.70
2023-04-10T08:48:54.770Z,13.77
2023-04-10T08:51:28.997Z,13.93
2023-04-10T08:54:01.471Z,14.13
2023-04-10T08:56:31.428Z,15.15
2023-04-10T08:58:58.505Z,13.55
2023-04-10T09:01:25.797Z,13.82
2023-04-10T09:03:54.697Z,13.50
2023-04-10T09:06:21.973Z,12.95
2023-04-10T09:08:48.891Z,12.50
2023-04-10T09:11:15.960Z,13.07
2023-04-10T09:13:44.200Z,13.10
2023-04-10T09:16:12.058Z,11.95
2023-04-10T09:18:51.394Z,11.88
2023-04-10T09:21:22.193Z,12.23
2023-04-10T09:23:49.623Z,12.25
2023-04-10T09:26:33.807Z,21.42
2023-04-10T09:29:06.227Z,15.55
2023-04-10T09:31:40.364Z,13.63
2023-04-10T09:34:07.347Z,12.50
2023-04-10T09:36:34.868Z,12.10
2023-04-10T09:39:02.016Z,13.10
2023-04-10T09:41:29.214Z,12.75
2023-04-10T09:44:14.776Z,11.38
2023-04-10T09:49:10.011Z,11.73
2023-04-10T09:51:39.562Z,11.25
2023-04-10T09:54:06.968Z,12.70
2023-04-10T09:56:40.264Z,12.40
2023-04-10T09:59:08.086Z,12.05
2023-04-10T10:01:37.860Z,11.65
2023-04-10T10:04:05.507Z,11.32
2023-04-10T10:06:33.562Z,11.18
2023-04-10T10:09:05.360Z,11.18
2023-04-10T10:11:36.297Z,10.57
2023-04-10T10:14:09.348Z,12.20
2023-04-10T10:16:43.868Z,11.40
2023-04-10T10:19:17.907Z,11.77
2023-04-10T10:21:45.900Z,10.93
2023-04-10T10:24:14.807Z,10.88
2023-04-10T10:26:44.206Z,11.63
2023-04-10T10:29:11.504Z,11.82
2023-04-10T10:31:38.860Z,11.38
2023-04-10T10:34:09.317Z,9.45
2023-04-10T10:36:37.675Z,10.20
2023-04-10T10:39:25.214Z,9.85
2023-04-10T10:42:31.989Z,10.45
2023-04-10T10:45:08.654Z,9.57
2023-04-10T10:47:45.529Z,9.15
2023-04-10T10:50:12.576Z,9.77
2023-04-10T10:52:52.943Z,8.77
2023-04-10T10:55:23.105Z,9.57
2023-04-10T10:58:00.739Z,8.98
2023-04-10T11:00:50.850Z,9.13
2023-04-10T11:03:18.053Z,8.80
2023-04-10T11:05:56.518Z,8.43
2023-04-10T11:08:37.051Z,7.90
2023-04-10T11:11:05.994Z,8.27
2023-04-10T11:14:03.107Z,7.88
2023-04-10T11:16:41.091Z,7.93
2023-04-10T11:19:16.264Z,5.47
2023-04-10T11:22:09.642Z,5.90
2023-04-10T11:25:03.572Z,5.90
2023-04-10T11:27:45.709Z,5.13
2023-04-10T11:30:31.874Z,5.68
2023-04-10T11:33:00.713Z,4.80
2023-04-10T11:35:28.915Z,5.88
2023-04-10T11:38:13.434Z,5.57
2023-04-10T11:41:02.367Z,6.03
2023-04-10T11:43:29.568Z,5.90
2023-04-10T11:46:08.866Z,5.75
2023-04-10T11:48:37.938Z,6.10
2023-04-10T11:51:09.532Z,6.20
2023-04-10T11:53:39.255Z,6.40
2023-04-10T11:56:09.355Z,6.53
2023-04-10T11:58:37.099Z,6.90
2023-04-10T12:01:05.901Z,5.88
2023-04-10T12:03:36.351Z,5.28
2023-04-10T12:06:04.917Z,5.63
2023-04-10T12:08:36.994Z,5.88
2023-04-10T12:11:04.187Z,6.05
2023-04-10T12:13:32.146Z,5.65
2023-04-10T12:16:01.690Z,5.68
2023-04-10T12:18:30.434Z,5.78
2023-04-10T12:20:59.449Z,5.30
2023-04-10T12:23:27.916Z,6.43
2023-04-10T12:26:15.333Z,6.00
2023-04-10T12:28:53.889Z,6.03
2023-04-10T12:31:47.574Z,4.82
2023-04-10T12:34:18.919Z,5.25
2023-04-10T12:36:53.358Z,5.10
2023-04-10T12:39:25.597Z,5.45
2023-04-10T12:41:52.909Z,5.50
2023-04-10T12:44:20.736Z,5.40
2023-04-10T12:46:50.996Z,5.15
2023-04-10T12:49:19.011Z,5.80
2023-04-10T12:51:52.949Z,5.07
2023-04-10T12:54:33.372Z,4.90
2023-04-10T12:57:04.683Z,4.57
2023-04-10T12:59:32.783Z,4.93
2023-04-10T13:01:59.940Z,5.00
2023-04-10T13:04:30.792Z,4.80
2023-04-10T13:06:57.804Z,5.03
2023-04-10T13:09:27.959Z,4.80
2023-04-10T13:11:57.779Z,4.75
2023-04-10T13:14:27.936Z,5.15
2023-04-10T13:16:57.710Z,5.53
2023-04-10T13:19:24.677Z,4.95
2023-04-10T13:21:52.064Z,5.78
2023-04-10T13:24:19.038Z,5.72
2023-04-10T13:26:46.153Z,5.80
2023-04-10T13:29:13.926Z,5.65
2023-04-10T13:31:41.144Z,4.78
2023-04-10T13:34:08.278Z,5.20
2023-04-10T13:36:37.855Z,5.47
2023-04-10T13:39:04.919Z,5.43
2023-04-10T13:41:32.001Z,4.90
2023-04-10T13:43:58.992Z,6.18
2023-04-10T13:46:26.272Z,6.40
2023-04-10T13:48:55.587Z,5.97
2023-04-10T13:51:22.939Z,5.68
2023-04-10T13:53:50.998Z,5.28
2023-04-10T13:56:18.062Z,5.70
2023-04-10T13:58:46.494Z,6.75
2023-04-10T14:01:13.512Z,7.68
2023-04-10T14:03:40.871Z,6.88
2023-04-10T14:06:08.046Z,5.90
2023-04-10T14:08:35.082Z,6.28
2023-04-10T14:11:02.065Z,5.53
2023-04-10T14:13:30.470Z,5.55
2023-04-10T14:15:57.651Z,6.00
2023-04-10T14:18:24.590Z,6.30
2023-04-10T14:20:51.484Z,6.10
2023-04-10T14:23:18.704Z,6.38
2023-04-10T14:25:46.437Z,6.90
2023-04-10T14:28:25.635Z,6.53
2023-04-10T14:30:52.939Z,6.82
2023-04-10T14:33:20.803Z,5.88
2023-04-10T14:35:48.502Z,5.75
2023-04-10T14:38:17.179Z,5.60
2023-04-10T14:40:48.575Z,5.70
2023-04-10T14:43:16.379Z,5.15
2023-04-10T14:45:43.840Z,5.70
2023-04-10T14:48:13.538Z,5.72
2023-04-10T14:50:41.052Z,5.10
2023-04-10T14:53:10.053Z,5.60
2023-04-10T14:55:37.779Z,5.53
2023-04-10T14:58:07.583Z,5.13
2023-04-10T15:00:35.602Z,6.20
2023-04-10T15:03:05.420Z,6.25
2023-04-10T15:05:33.020Z,7.00
2023-04-10T15:08:00.317Z,6.18
2023-04-10T15:10:30.758Z,5.82
2023-04-10T15:12:57.806Z,4.95
2023-04-10T15:15:24.965Z,5.38
2023-04-10T15:17:53.311Z,5.30
2023-04-10T15:20:20.518Z,5.40
2023-04-10T15:22:48.451Z,5.63
2023-04-10T15:25:16.020Z,6.00
2023-04-10T15:27:44.975Z,5.13
2023-04-10T15:30:12.612Z,5.00
2023-04-10T15:32:39.898Z,5.32
2023-04-10T15:35:07.528Z,5.13
2023-04-10T15:37:37.571Z,4.30
2023-04-10T15:40:06.459Z,4.25
2023-04-10T15:42:34.700Z,4.65
2023-04-10T15:45:01.848Z,4.28
2023-04-10T15:47:28.992Z,4.68
2023-04-10T15:49:57.401Z,4.90
2023-04-10T15:52:24.404Z,4.50
2023-04-10T15:54:53.013Z,5.00
2023-04-10T15:57:20.886Z,4.43
2023-04-10T15:59:51.265Z,4.88
2023-04-10T16:02:18.247Z,4.45
2023-04-10T16:04:45.374Z,4.93
2023-04-10T16:07:12.349Z,4.60
2023-04-10T16:09:41.504Z,4.40
2023-04-10T16:12:08.649Z,4.60
2023-04-10T16:14:36.425Z,4.80
2023-04-10T16:17:03.460Z,4.82
2023-04-10T16:19:31.557Z,5.00
2023-04-10T16:21:58.504Z,5.00
2023-04-10T16:24:25.839Z,4.57
2023-04-10T16:26:54.229Z,4.80
2023-04-10T16:29:21.402Z,5.45
2023-04-10T16:31:48.657Z,4.30
2023-04-10T16:34:15.829Z,4.70
2023-04-10T16:36:42.991Z,4.60
2023-04-10T16:39:10.058Z,4.93
2023-04-10T16:41:37.290Z,5.55
2023-04-10T16:44:04.283Z,5.80
2023-04-10T16:46:33.657Z,7.80
2023-04-10T16:49:01.632Z,6.55
2023-04-10T16:51:31.322Z,5.22
2023-04-10T16:53:58.324Z,4.35
2023-04-10T16:56:25.635Z,5.45
2023-04-10T16:58:53.076Z,5.53
2023-04-10T17:01:26.083Z,4.82
2023-04-10T17:03:54.328Z,4.70
2023-04-10T17:06:22.915Z,5.22
2023-04-10T17:08:51.633Z,5.00
2023-04-10T17:11:18.704Z,5.85
2023-04-10T17:13:46.130Z,5.05
2023-04-10T17:16:13.210Z,4.30
2023-04-10T17:18:40.950Z,4.78
2023-04-10T17:21:13.645Z,5.90
2023-04-10T17:23:40.965Z,5.15
2023-04-10T17:26:16.147Z,4.35
2023-04-10T17:28:45.434Z,3.70
2023-04-10T17:31:14.269Z,4.30
2023-04-10T17:33:44.727Z,5.22
2023-04-10T17:36:12.969Z,4.45
2023-04-10T17:38:41.445Z,4.88
2023-04-10T17:41:09.735Z,4.13
2023-04-10T17:43:40.824Z,5.00
2023-04-10T17:46:07.943Z,4.68
2023-04-10T17:48:40.037Z,4.57
2023-04-10T17:51:07.906Z,4.75
2023-04-10T17:53:34.976Z,4.38
2023-04-10T17:56:05.504Z,5.00
2023-04-10T17:58:32.749Z,5.00
2023-04-10T18:01:00.605Z,5.22
2023-04-10T18:03:27.989Z,4.38
2023-04-10T18:05:56.149Z,4.97
2023-04-10T18:08:23.204Z,5.07
2023-04-10T18:10:50.177Z,4.40
2023-04-10T18:13:17.163Z,4.75
2023-04-10T18:15:44.176Z,4.45
2023-04-10T18:18:11.321Z,5.00
2023-04-10T18:20:38.416Z,4.68
2023-04-10T18:23:06.565Z,4.72
2023-04-10T18:25:33.642Z,4.50
2023-04-10T18:30:30.742Z,4.28
2023-04-10T18:32:57.865Z,4.45
2023-04-10T18:35:24.919Z,5.20
2023-04-10T18:37:52.145Z,4.97
2023-04-10T18:40:19.611Z,4.40
2023-04-10T18:42:46.631Z,5.25
2023-04-10T18:45:13.616Z,4.72
2023-04-10T18:47:40.780Z,4.72
2023-04-10T18:50:12.491Z,4.90
2023-04-10T18:52:40.221Z,5.53
2023-04-10T18:55:08.734Z,5.75
2023-04-10T18:57:37.529Z,5.68
2023-04-10T19:00:08.250Z,5.65
2023-04-10T19:02:35.686Z,5.25
2023-04-10T19:05:03.879Z,5.40
2023-04-10T19:07:34.939Z,5.10
2023-04-10T19:10:02.665Z,5.40
2023-04-10T19:12:29.956Z,4.55
2023-04-10T19:14:56.898Z,5.15
2023-04-10T19:17:25.019Z,5.00
2023-04-10T19:19:53.331Z,4.57
2023-04-10T19:22:21.730Z,4.60
2023-04-10T19:24:50.689Z,4.78
2023-04-10T19:27:17.946Z,4.72
2023-04-10T19:29:45.068Z,4.60
2023-04-10T19:32:12.140Z,4.30
2023-04-10T19:34:39.113Z,4.80
2023-04-10T19:37:06.142Z,4.55
2023-04-10T19:39:34.456Z,4.65
2023-04-10T19:42:03.351Z,4.47
2023-04-10T19:44:30.928Z,4.63
2023-04-10T19:46:57.935Z,4.30
2023-04-10T19:49:26.227Z,4.60
2023-04-10T19:51:55.026Z,4.95
2023-04-10T19:54:22.878Z,5.10
2023-04-10T19:56:50.213Z,5.03
2023-04-10T19:59:17.596Z,5.18
2023-04-10T20:01:44.710Z,5.88
2023-04-10T20:04:12.033Z,4.65
2023-04-10T20:06:39.362Z,5.75
2023-04-10T20:09:07.402Z,5.63
2023-04-10T20:11:35.187Z,5.10
2023-04-10T20:14:02.221Z,5.47
2023-04-10T20:16:29.167Z,5.43
2023-04-10T20:18:56.510Z,5.43
2023-04-10T20:21:24.073Z,5.05
2023-04-10T20:23:51.072Z,5.55
2023-04-10T20:26:17.990Z,5.10
2023-04-10T20:28:45.212Z,6.10
2023-04-10T20:31:13.203Z,6.18
2023-04-10T20:33:40.947Z,6.32
2023-04-10T20:36:08.438Z,5.75
2023-04-10T20:38:35.417Z,5.78
2023-04-10T20:41:03.669Z,6.05
2023-04-10T20:43:34.113Z,5.85
2023-04-10T20:46:05.354Z,5.68
2023-04-10T20:48:32.537Z,6.05
2023-04-10T20:50:59.579Z,5.72
2023-04-10T20:53:29.418Z,5.80
2023-04-10T20:55:57.468Z,6.68
2023-04-10T20:58:24.458Z,6.18
2023-04-10T21:00:52.921Z,5.95
2023-04-10T21:03:20.683Z,6.20
2023-04-10T21:05:52.113Z,5.80
2023-04-10T21:08:20.653Z,5.97
2023-04-10T21:10:49.614Z,5.32
2023-04-10T21:13:16.871Z,6.25
2023-04-10T21:15:46.392Z,6.63
2023-04-10T21:18:14.491Z,5.65
2023-04-10T21:20:43.395Z,5.05
2023-04-10T21:23:10.402Z,5.72
2023-04-10T21:25:39.205Z,6.15
2023-04-10T21:28:06.269Z,6.05
2023-04-10T21:30:33.334Z,5.47
2023-04-10T21:33:00.256Z,6.00
2023-04-10T21:35:27.384Z,6.13
2023-04-10T21:37:57.673Z,5.57
2023-04-10T21:40:26.235Z,6.05
2023-04-10T21:42:56.637Z,6.30
2023-04-10T21:45:24.268Z,6.30
2023-04-10T21:47:54.081Z,5.72
2023-04-10T21:50:21.628Z,6.15
2023-04-10T21:52:48.704Z,6.55
2023-04-10T21:55:15.859Z,6.45
2023-04-10T21:57:43.014Z,6.45
2023-04-10T22:00:10.365Z,6.28
2023-04-10T22:02:37.517Z,6.45
2023-04-10T22:05:13.242Z,6.32
2023-04-10T22:07:41.204Z,7.05
2023-04-10T22:10:08.770Z,6.10
2023-04-10T22:12:36.003Z,6.63
2023-04-10T22:15:03.853Z,5.97
2023-04-10T22:17:30.779Z,6.30
2023-04-10T22:19:57.735Z,6.00
2023-04-10T22:22:24.741Z,6.65
2023-04-10T22:24:51.786Z,6.82
2023-04-10T22:27:18.814Z,6.38
2023-04-10T22:29:56.265Z,6.43
2023-04-10T22:32:29.810Z,6.20
2023-04-10T22:34:58.964Z,6.82
2023-04-10T22:37:26.679Z,5.93
2023-04-10T22:39:56.217Z,6.18
2023-04-10T22:42:23.909Z,5.90
2023-04-10T22:44:51.103Z,6.60
2023-04-10T22:47:18.202Z,6.28
2023-04-10T22:49:45.342Z,6.00
2023-04-10T22:52:13.275Z,6.45
2023-04-10T22:54:43.032Z,6.05
2023-04-10T22:57:10.522Z,6.20
2023-04-10T22:59:38.018Z,5.95
2023-04-10T23:02:05.298Z,5.97
2023-04-10T23:04:32.662Z,5.70
2023-04-10T23:06:59.668Z,6.05
2023-04-10T23:09:26.687Z,6.45
2023-04-10T23:11:53.677Z,5.82
2023-04-10T23:14:20.777Z,5.53
2023-04-10T23:16:47.994Z,5.60
2023-04-10T23:19:15.501Z,5.95
2023-04-10T23:21:42.575Z,6.00
2023-04-10T23:24:09.500Z,5.82
2023-04-10T23:26:36.448Z,5.40
2023-04-10T23:29:03.455Z,5.60
2023-04-10T23:31:30.535Z,5.10
2023-04-10T23:33:58.824Z,6.28
2023-04-10T23:36:25.752Z,6.38
2023-04-10T23:38:53.289Z,5.68
2023-04-10T23:41:21.528Z,5.88
2023-04-10T23:43:48.554Z,5.35
2023-04-10T23:46:15.523Z,5.80
2023-04-10T23:48:42.649Z,5.43
2023-04-10T23:51:09.701Z,6.13
2023-04-10T23:53:36.705Z,6.00
2023-04-10T23:56:03.732Z,5.72
2023-04-10T23:58:32.177Z,6.10
